Time;durP1;ratioP1;P1;durP2;ratioP2;P2;SDS_P1;SDS_P2;PMS_P1;PMS_P2;Temp;Humidity;BMP_temperature;BMP_pressure;BME280_temperature;BME280_humidity;BME280_pressure;Samples;Min_cycle;Max_cycle;Signal;HPM_P1;HPM_P2
2022/10/15 00:01:26;;;;;;;;;9.67;9.00;;;;;17.67;100.00;100538.75;5081726;27;45218;-77
2022/10/15 00:03:51;;;;;;;;;9.00;8.00;;;;;17.69;100.00;100548.44;5082098;27;45346;-76
2022/10/15 00:06:19;;;;;;;;;9.67;9.67;;;;;17.77;100.00;100558.88;5081350;27;45400;-77
2022/10/15 00:08:46;;;;;;;;;10.67;10.00;;;;;17.68;100.00;100547.63;5081571;27;45418;-77
2022/10/15 00:11:17;;;;;;;;;10.00;10.00;;;;;17.76;100.00;100559.94;5081135;28;45439;-78
2022/10/15 00:13:43;;;;;;;;;10.33;10.33;;;;;17.69;100.00;100556.50;5080150;28;45335;-76
2022/10/15 00:16:13;;;;;;;;;8.33;8.33;;;;;17.75;100.00;100564.47;5081547;27;45246;-76
2022/10/15 00:18:39;;;;;;;;;10.00;9.00;;;;;17.70;100.00;100556.28;5081289;28;46557;-76
2022/10/15 00:21:10;;;;;;;;;9.00;9.00;;;;;17.68;100.00;100553.00;5081505;27;45353;-75
2022/10/15 00:23:36;;;;;;;;;11.00;10.00;;;;;17.65;100.00;100551.59;5081770;28;45339;-76
2022/10/15 00:26:02;;;;;;;;;12.00;9.00;;;;;17.67;100.00;100546.00;5080831;27;45389;-76
2022/10/15 00:28:28;;;;;;;;;9.33;9.00;;;;;17.75;100.00;100558.31;5081288;27;45361;-75
2022/10/15 00:30:59;;;;;;;;;10.00;10.00;;;;;17.71;100.00;100543.66;5081268;28;45365;-75
2022/10/15 00:33:25;;;;;;;;;9.00;9.00;;;;;17.70;100.00;100545.53;5114471;27;45600;-76
2022/10/15 00:35:58;;;;;;;;;9.67;9.67;;;;;17.76;100.00;100549.19;5081097;27;45425;-76
2022/10/15 00:38:23;;;;;;;;;12.00;10.33;;;;;17.74;100.00;100545.88;5079772;28;47647;-75
2022/10/15 00:40:48;;;;;;;;;11.33;11.33;;;;;17.73;100.00;100547.78;5096356;27;51479;-76
2022/10/15 00:43:14;;;;;;;;;10.00;10.00;;;;;17.64;100.00;100531.16;5081277;28;45389;-76
2022/10/15 00:45:39;;;;;;;;;13.33;12.33;;;;;17.67;100.00;100535.25;5079441;28;55108;-76
2022/10/15 00:48:06;;;;;;;;;11.33;10.33;;;;;17.73;100.00;100537.03;5080640;27;47002;-76
2022/10/15 00:50:33;;;;;;;;;10.00;10.00;;;;;17.70;100.00;100531.28;5114022;27;45388;-76
2022/10/15 00:53:04;;;;;;;;;15.00;12.33;;;;;17.70;100.00;100533.97;5114001;27;45465;-76
2022/10/15 00:55:35;;;;;;;;;13.67;12.33;;;;;17.69;100.00;100532.31;5080928;27;45206;-76
2022/10/15 00:58:05;;;;;;;;;12.00;11.00;;;;;17.65;100.00;100524.72;5079367;28;47144;-76
2022/10/15 01:00:32;;;;;;;;;12.67;12.67;;;;;17.66;100.00;100531.72;5080007;27;45465;-76
2022/10/15 01:02:58;;;;;;;;;12.67;12.67;;;;;17.70;100.00;100536.66;5080710;27;45433;-76
2022/10/15 01:05:23;;;;;;;;;11.33;11.00;;;;;17.65;100.00;100524.72;5080738;28;45362;-76
2022/10/15 01:07:49;;;;;;;;;10.33;10.33;;;;;17.61;100.00;100522.72;5080473;27;50677;-76
2022/10/15 01:10:15;;;;;;;;;12.67;11.33;;;;;17.66;100.00;100529.03;5080572;27;45444;-76
2022/10/15 01:13:10;;;;;;;;;11.00;11.00;;;;;17.62;100.00;100516.28;5080540;27;45374;-75
2022/10/15 01:16:05;;;;;;;;;15.33;14.33;;;;;17.64;100.00;100523.09;5080738;27;45509;-75
2022/10/15 01:18:38;;;;;;;;;8.33;8.33;;;;;17.61;100.00;100520.03;5068358;27;48208;-76
2022/10/15 01:21:21;;;;;;;;;10.00;10.00;;;;;17.61;100.00;100523.53;5080343;28;45340;-76
2022/10/15 01:24:11;;;;;;;;;9.33;9.33;;;;;17.60;100.00;100516.50;5080502;28;45329;-75
2022/10/15 01:27:01;;;;;;;;;10.00;10.00;;;;;17.60;100.00;100504.97;5080385;27;45348;-75
2022/10/15 01:29:27;;;;;;;;;10.67;10.67;;;;;17.59;100.00;100504.13;5080239;28;46595;-75
2022/10/15 01:32:18;;;;;;;;;8.00;8.00;;;;;17.56;100.00;100488.47;5080219;28;45349;-75
2022/10/15 01:34:52;;;;;;;;;10.00;9.67;;;;;17.52;100.00;100488.09;5066672;28;45394;-75
2022/10/15 01:37:40;;;;;;;;;9.67;9.67;;;;;17.53;100.00;100486.22;5080233;28;45305;-75
2022/10/15 01:40:17;;;;;;;;;8.67;7.67;;;;;17.50;100.00;100475.94;5101144;27;46173;-76
2022/10/15 01:42:52;;;;;;;;;11.33;10.33;;;;;17.41;100.00;100459.31;5079930;27;45404;-76
2022/10/15 01:45:59;;;;;;;;;8.00;8.00;;;;;17.50;100.00;100466.00;5080379;27;45350;-75
2022/10/15 01:48:28;;;;;;;;;7.00;7.00;;;;;17.49;100.00;100468.94;5078332;28;46209;-75
2022/10/15 01:50:59;;;;;;;;;7.67;7.67;;;;;17.45;100.00;100468.53;5080026;27;46336;-76
2022/10/15 01:53:26;;;;;;;;;7.67;7.67;;;;;17.41;100.00;100457.44;5080164;27;45416;-76
2022/10/15 01:56:05;;;;;;;;;6.00;6.00;;;;;17.42;100.00;100453.72;5113030;27;45533;-75
2022/10/15 01:58:31;;;;;;;;;5.00;5.00;;;;;17.42;100.00;100444.84;5112840;27;46514;-76
2022/10/15 02:00:58;;;;;;;;;5.00;5.00;;;;;17.46;100.00;100443.34;5078773;28;47255;-76
2022/10/15 02:03:23;;;;;;;;;5.33;5.00;;;;;17.47;100.00;100444.16;5095267;27;45791;-76
2022/10/15 02:06:04;;;;;;;;;6.00;5.00;;;;;17.46;100.00;100435.28;5080084;27;45484;-76
2022/10/15 02:08:37;;;;;;;;;0.00;0.00;;;;;17.48;100.00;100443.13;5079806;27;45477;-76
2022/10/15 02:11:13;;;;;;;;;6.67;6.00;;;;;17.48;100.00;100429.69;5091568;27;47376;-76
2022/10/15 02:13:58;;;;;;;;;5.33;3.67;;;;;17.48;100.00;100438.53;5074110;28;45384;-76
2022/10/15 02:16:33;;;;;;;;;5.67;5.67;;;;;17.50;100.00;100423.03;5072135;28;45327;-75
2022/10/15 02:19:14;;;;;;;;;4.00;4.00;;;;;17.47;100.00;100418.09;5079648;28;45448;-76
2022/10/15 02:22:05;;;;;;;;;2.33;2.33;;;;;17.50;100.00;100414.13;5079686;28;45476;-75
2022/10/15 02:24:40;;;;;;;;;5.00;3.00;;;;;17.40;100.00;100395.91;5095301;27;45364;-75
2022/10/15 02:27:07;;;;;;;;;5.33;5.33;;;;;17.41;100.00;100392.97;5079503;27;45838;-75
2022/10/15 02:29:35;;;;;;;;;4.00;4.00;;;;;17.41;100.00;100392.16;5079362;27;45459;-76
2022/10/15 02:32:04;;;;;;;;;3.00;3.00;;;;;17.36;100.00;100375.91;5079346;27;46924;-76
2022/10/15 02:34:32;;;;;;;;;3.00;3.00;;;;;17.33;100.00;100384.44;5079296;28;45374;-77
2022/10/15 02:37:00;;;;;;;;;4.33;4.33;;;;;17.39;100.00;100402.31;5079617;27;45388;-76
2022/10/15 02:39:25;;;;;;;;;3.67;3.67;;;;;17.33;100.00;100384.44;5079243;27;45342;-76
2022/10/15 02:41:52;;;;;;;;;3.33;3.33;;;;;17.33;100.00;100373.69;5079057;27;45496;-76
2022/10/15 02:44:18;;;;;;;;;3.67;3.67;;;;;17.40;100.00;100369.03;5079354;27;45423;-76
2022/10/15 02:46:43;;;;;;;;;3.00;3.00;;;;;17.31;100.00;100346.22;5079282;27;45464;-76
2022/10/15 02:49:09;;;;;;;;;4.33;3.67;;;;;17.41;100.00;100357.22;5094844;27;47149;-76
2022/10/15 02:51:35;;;;;;;;;2.00;2.00;;;;;17.42;100.00;100356.22;5079024;28;45345;-76
2022/10/15 02:54:02;;;;;;;;;3.00;3.00;;;;;17.40;100.00;100343.00;5079267;27;45632;-76
2022/10/15 02:56:28;;;;;;;;;2.33;2.33;;;;;17.39;100.00;100341.34;5079034;28;45283;-76
2022/10/15 02:58:53;;;;;;;;;2.67;2.67;;;;;17.42;100.00;100340.09;5079137;27;45345;-76
2022/10/15 03:01:19;;;;;;;;;1.00;1.00;;;;;17.39;100.00;100343.22;5078764;28;45401;-75
2022/10/15 03:03:44;;;;;;;;;1.00;1.00;;;;;17.37;100.00;100346.16;5079218;27;45367;-76
2022/10/15 03:06:10;;;;;;;;;2.00;2.00;;;;;17.39;100.00;100351.28;5079033;28;45710;-75
2022/10/15 03:08:35;;;;;;;;;1.33;1.33;;;;;17.40;100.00;100344.88;5078902;27;45400;-75
2022/10/15 03:11:01;;;;;;;;;2.33;2.33;;;;;17.34;100.00;100325.13;5078767;27;46153;-75
2022/10/15 03:13:27;;;;;;;;;1.00;1.00;;;;;17.35;100.00;100321.38;5078968;27;45366;-75
2022/10/15 03:15:52;;;;;;;;;0.67;0.67;;;;;17.38;100.00;100323.59;5076297;27;45351;-75
2022/10/15 03:18:18;;;;;;;;;1.00;1.00;;;;;17.34;100.00;100319.75;5074789;27;45243;-75
2022/10/15 03:20:43;;;;;;;;;1.00;1.00;;;;;17.39;100.00;100321.75;5124699;27;48275;-75
2022/10/15 03:23:09;;;;;;;;;0.67;0.00;;;;;17.27;100.00;100300.25;5081124;27;45383;-76
2022/10/15 03:25:34;;;;;;;;;0.00;0.00;;;;;17.34;100.00;100303.63;5082212;27;45192;-75
2022/10/15 03:27:59;;;;;;;;;2.00;0.67;;;;;17.44;100.00;100316.50;5082353;27;45394;-75
2022/10/15 03:30:25;;;;;;;;;1.00;1.00;;;;;17.36;100.00;100292.66;5082295;28;46075;-75
2022/10/15 03:32:50;;;;;;;;;0.00;0.00;;;;;17.41;100.00;100304.34;5082289;27;45334;-76
2022/10/15 03:35:15;;;;;;;;;1.00;1.00;;;;;17.49;100.00;100313.13;5098045;27;45328;-76
2022/10/15 03:37:41;;;;;;;;;0.00;0.00;;;;;17.47;100.00;100307.97;5082330;27;45417;-75
2022/10/15 03:40:07;;;;;;;;;0.00;0.00;;;;;17.39;100.00;100289.50;5082260;27;45404;-75
2022/10/15 03:42:32;;;;;;;;;0.00;0.00;;;;;17.45;100.00;100295.81;5114889;27;45333;-76
2022/10/15 03:44:57;;;;;;;;;1.00;1.00;;;;;17.49;100.00;100297.81;5082331;28;45284;-75
2022/10/15 03:47:23;;;;;;;;;0.67;0.67;;;;;17.52;100.00;100300.03;5081236;28;54300;-77
2022/10/15 03:49:48;;;;;;;;;0.00;0.00;;;;;17.49;100.00;100286.25;5097732;27;46897;-77
2022/10/15 03:52:14;;;;;;;;;1.00;0.67;;;;;17.51;100.00;100284.16;5081838;27;45362;-77
2022/10/15 03:54:39;;;;;;;;;1.00;1.00;;;;;17.46;100.00;100273.28;5082284;27;45341;-76
2022/10/15 03:57:05;;;;;;;;;0.67;0.67;;;;;17.53;100.00;100277.50;5081542;27;45604;-76
2022/10/15 03:59:30;;;;;;;;;0.00;0.00;;;;;17.53;100.00;100276.66;5081518;28;51958;-77
2022/10/15 04:01:55;;;;;;;;;1.67;1.00;;;;;17.46;100.00;100258.00;5081769;27;45267;-77
2022/10/15 04:04:21;;;;;;;;;0.67;0.67;;;;;17.53;100.00;100258.69;5080559;28;45314;-77
2022/10/15 04:06:46;;;;;;;;;0.00;0.00;;;;;17.50;100.00;100259.16;5081743;27;45350;-76
2022/10/15 04:09:13;;;;;;;;;0.00;0.00;;;;;17.57;100.00;100259.03;5081559;27;45397;-77
2022/10/15 04:11:38;;;;;;;;;0.00;0.00;;;;;17.58;100.00;100249.94;5081219;27;45418;-75
2022/10/15 04:14:04;;;;;;;;;0.33;0.33;;;;;17.60;100.00;100255.06;5081646;28;45377;-75
2022/10/15 04:16:30;;;;;;;;;0.33;0.33;;;;;17.60;100.00;100245.13;5080537;27;46163;-77
2022/10/15 04:18:57;;;;;;;;;1.00;0.33;;;;;17.54;100.00;100233.44;5081302;28;45408;-76
2022/10/15 04:21:23;;;;;;;;;0.00;0.00;;;;;17.59;100.00;100240.00;5081554;27;45291;-76
2022/10/15 04:23:48;;;;;;;;;1.00;0.00;;;;;17.62;100.00;100236.84;5081574;27;45334;-76
2022/10/15 04:26:13;;;;;;;;;0.00;0.00;;;;;17.64;100.00;100243.63;5081351;27;46464;-76
2022/10/15 04:28:38;;;;;;;;;0.00;0.00;;;;;17.60;100.00;100222.84;5097116;27;48458;-77
2022/10/15 04:31:04;;;;;;;;;0.00;0.00;;;;;17.66;100.00;100230.75;5079920;28;45464;-75
2022/10/15 04:33:29;;;;;;;;;0.00;0.00;;;;;17.64;100.00;100221.31;5081430;28;45270;-75
2022/10/15 04:36:03;;;;;;;;;1.00;1.00;;;;;17.69;100.00;100234.84;5081054;28;49869;-75
2022/10/15 04:38:29;;;;;;;;;0.00;0.00;;;;;17.68;100.00;100235.91;5081383;27;46396;-76
2022/10/15 04:41:02;;;;;;;;;0.50;0.50;;;;;17.69;100.00;100237.53;5080995;27;45279;-77
2022/10/15 04:43:27;;;;;;;;;0.00;0.00;;;;;17.62;100.00;100231.47;5081474;28;45355;-76
2022/10/15 04:46:01;;;;;;;;;0.00;0.00;;;;;17.61;100.00;100224.47;5081215;27;45432;-77
2022/10/15 04:48:30;;;;;;;;;1.00;1.00;;;;;17.58;100.00;100225.75;5081121;27;45377;-75
2022/10/15 04:51:17;;;;;;;;;0.50;0.50;;;;;17.65;100.00;100231.81;5081126;28;45196;-77
2022/10/15 04:53:43;;;;;;;;;0.33;0.33;;;;;17.65;100.00;100225.63;5080907;28;45582;-76
2022/10/15 04:56:14;;;;;;;;;2.67;1.00;;;;;17.68;100.00;100230.53;5080661;27;45202;-77
2022/10/15 04:58:41;;;;;;;;;0.00;0.00;;;;;17.66;100.00;100232.66;5079638;28;46344;-76
2022/10/15 05:01:12;;;;;;;;;0.67;0.67;;;;;17.61;100.00;100211.84;5080840;27;45225;-77
2022/10/15 05:03:40;;;;;;;;;0.00;0.00;;;;;17.72;100.00;100229.00;5080925;27;45540;-76
2022/10/15 05:06:10;;;;;;;;;0.00;0.00;;;;;17.72;100.00;100231.69;5080868;27;45339;-76
2022/10/15 05:08:36;;;;;;;;;0.00;0.00;;;;;17.70;100.00;100228.44;5080393;27;47146;-77
2022/10/15 05:11:10;;;;;;;;;0.33;0.00;;;;;17.76;100.00;100234.75;5080485;27;45595;-77
2022/10/15 05:13:36;;;;;;;;;0.67;0.67;;;;;17.71;100.00;100235.44;5080520;27;45397;-76
2022/10/15 05:16:16;;;;;;;;;0.00;0.00;;;;;17.76;100.00;100240.94;5080709;27;45414;-76
2022/10/15 05:18:43;;;;;;;;;0.00;0.00;;;;;17.79;100.00;100240.47;5096050;27;48897;-76
2022/10/15 05:21:09;;;;;;;;;0.00;0.00;;;;;17.78;100.00;100232.66;5080627;28;45327;-76
2022/10/15 05:23:35;;;;;;;;;1.00;1.00;;;;;17.77;100.00;100239.88;5080766;27;45338;-74
2022/10/15 05:26:13;;;;;;;;;0.33;0.33;;;;;17.78;100.00;100235.34;5080174;27;45308;-78
2022/10/15 05:28:38;;;;;;;;;0.00;0.00;;;;;17.73;100.00;100230.66;5078962;28;47146;-77
2022/10/15 05:31:12;;;;;;;;;0.00;0.00;;;;;17.77;100.00;100233.69;5080455;27;45337;-75
2022/10/15 05:33:37;;;;;;;;;0.00;0.00;;;;;17.77;100.00;100229.13;5080571;27;45351;-76
2022/10/15 05:36:16;;;;;;;;;0.00;0.00;;;;;17.82;100.00;100241.88;5080448;27;45435;-77
2022/10/15 05:38:46;;;;;;;;;0.33;0.00;;;;;17.79;100.00;100227.03;5080568;27;45278;-77
2022/10/15 05:41:12;;;;;;;;;0.67;0.67;;;;;17.86;100.00;100240.34;5080080;27;45328;-75
2022/10/15 05:43:37;;;;;;;;;0.00;0.00;;;;;17.85;100.00;100235.19;5080731;27;45349;-76
2022/10/15 05:46:03;;;;;;;;;1.00;1.00;;;;;17.86;100.00;100242.19;5095226;27;46091;-76
2022/10/15 05:48:28;;;;;;;;;0.67;0.67;;;;;17.83;100.00;100234.59;5080220;27;45334;-76
2022/10/15 05:51:00;;;;;;;;;0.33;0.00;;;;;17.85;100.00;100235.19;5080231;27;45323;-77
2022/10/15 05:53:25;;;;;;;;;1.00;0.00;;;;;17.84;100.00;100239.75;5080368;27;45339;-77
2022/10/15 05:55:52;;;;;;;;;2.00;0.00;;;;;17.82;100.00;100238.34;5095693;27;47156;-77
2022/10/15 05:58:18;;;;;;;;;0.00;0.00;;;;;17.84;100.00;100238.94;5079940;28;45355;-76
2022/10/15 06:00:43;;;;;;;;;0.00;0.00;;;;;17.83;100.00;100230.06;5080254;27;45382;-78
2022/10/15 06:03:13;;;;;;;;;0.00;0.00;;;;;17.92;100.00;100242.09;5080169;27;45329;-78
2022/10/15 06:05:38;;;;;;;;;0.00;0.00;;;;;17.92;100.00;100238.56;5079840;27;45425;-79
2022/10/15 06:08:04;;;;;;;;;0.33;0.00;;;;;17.95;100.00;100239.97;5080585;27;46100;-76
2022/10/15 06:10:29;;;;;;;;;0.00;0.00;;;;;17.89;100.00;100225.59;5079618;27;45440;-78
2022/10/15 06:12:55;;;;;;;;;0.00;0.00;;;;;17.93;100.00;100232.16;5079925;27;45211;-79
2022/10/15 06:15:20;;;;;;;;;35.33;29.33;;;;;17.97;100.00;100232.50;5079680;27;45377;-78
2022/10/15 06:17:45;;;;;;;;;0.00;0.00;;;;;17.93;100.00;100234.84;5079761;27;45345;-81
2022/10/15 06:20:11;;;;;;;;;0.00;0.00;;;;;17.92;100.00;100233.19;5079989;28;45337;-79
2022/10/15 06:22:37;;;;;;;;;0.00;0.00;;;;;17.91;100.00;100231.56;5080117;27;45375;-80
2022/10/15 06:25:02;;;;;;;;;0.00;0.00;;;;;17.91;100.00;100232.41;5079898;27;45566;-82
2022/10/15 06:27:27;;;;;;;;;0.00;0.00;;;;;17.94;100.00;100231.09;5079520;27;45306;-78
2022/10/15 06:29:53;;;;;;;;;0.00;0.00;;;;;17.98;100.00;100244.88;5079483;27;45374;-79
2022/10/15 06:32:18;;;;;;;;;0.00;0.00;;;;;17.99;100.00;100241.94;5079862;27;45420;-78
2022/10/15 06:34:43;;;;;;;;;0.67;0.00;;;;;17.94;100.00;100241.84;5079275;27;45426;-79
2022/10/15 06:37:09;;;;;;;;;0.00;0.00;;;;;17.89;100.00;100236.34;5079597;28;46561;-80
2022/10/15 06:39:35;;;;;;;;;1.00;0.00;;;;;17.99;100.00;100251.91;5079399;27;45485;-79
2022/10/15 06:42:00;;;;;;;;;0.00;0.00;;;;;17.95;100.00;100235.41;5072935;28;45462;-78
2022/10/15 06:44:25;;;;;;;;;0.00;0.00;;;;;18.01;100.00;100249.78;5077049;27;45230;-80
2022/10/15 06:46:51;;;;;;;;;0.00;0.00;;;;;18.01;100.00;100258.66;5110901;27;47268;-78
2022/10/15 06:49:16;;;;;;;;;0.00;0.00;;;;;18.00;100.00;100258.91;5091321;27;45338;-77
2022/10/15 06:51:41;;;;;;;;;0.67;0.67;;;;;17.99;100.00;100260.78;5079745;27;45301;-79
2022/10/15 06:54:06;;;;;;;;;1.00;1.00;;;;;17.99;100.00;100257.28;5079054;27;45446;-78
2022/10/15 06:56:32;;;;;;;;;1.67;0.00;;;;;17.99;100.00;100251.91;5079114;28;46093;-78
2022/10/15 06:58:57;;;;;;;;;0.33;0.00;;;;;17.96;100.00;100247.00;5082538;27;45222;-78
2022/10/15 07:01:22;;;;;;;;;0.67;0.00;;;;;18.07;100.00;100267.66;5081517;28;45269;-78
2022/10/15 07:03:51;;;;;;;;;0.00;0.00;;;;;18.08;100.00;100258.53;5082386;27;45294;-78
2022/10/15 07:06:17;;;;;;;;;1.00;0.00;;;;;17.98;100.00;100253.75;5082631;27;45401;-78
2022/10/15 07:08:43;;;;;;;;;0.00;0.00;;;;;17.99;100.00;100250.00;5082736;28;45315;-78
2022/10/15 07:11:09;;;;;;;;;0.00;0.00;;;;;18.03;100.00;100264.63;5082634;27;45426;-78
2022/10/15 07:13:34;;;;;;;;;0.00;0.00;;;;;18.03;100.00;100261.13;5080996;28;46224;-78
2022/10/15 07:16:08;;;;;;;;;0.00;0.00;;;;;18.10;100.00;100267.22;5081120;28;47328;-79
2022/10/15 07:18:34;;;;;;;;;0.00;0.00;;;;;18.14;100.00;100267.59;5082561;28;45268;-79
2022/10/15 07:21:00;;;;;;;;;0.00;0.00;;;;;18.19;100.00;100261.50;5078344;27;45499;-78
2022/10/15 07:23:25;;;;;;;;;0.00;0.00;;;;;18.23;100.00;100258.06;5071994;27;46165;-78
2022/10/15 07:25:51;;;;;;;;;0.00;0.00;;;;;18.20;100.00;100249.66;5063396;28;54288;-78
2022/10/15 07:28:16;;;;;;;;;0.00;0.00;;;;;18.17;100.00;100229.47;5079193;28;45469;-76
2022/10/15 07:30:41;;;;;;;;;0.00;0.00;;;;;18.26;100.00;100262.97;5077457;27;45485;-78
2022/10/15 07:33:07;;;;;;;;;0.00;0.00;;;;;18.28;100.00;100251.97;5094438;27;45416;-78
2022/10/15 07:35:32;;;;;;;;;0.00;0.00;;;;;18.28;100.00;100254.66;5082452;27;46319;-78
2022/10/15 07:38:01;;;;;;;;;0.00;0.00;;;;;18.31;100.00;100262.25;5082448;27;45232;-78
2022/10/15 07:40:26;;;;;;;;;0.00;0.00;;;;;18.37;100.00;100268.56;5081926;27;45666;-78
2022/10/15 07:42:56;;;;;;;;;0.33;0.00;;;;;18.39;100.00;100282.59;5082185;27;45392;-78
2022/10/15 07:45:22;;;;;;;;;0.00;0.00;;;;;18.39;100.00;100267.28;5081924;27;48698;-78
2022/10/15 07:47:48;;;;;;;;;0.00;0.00;;;;;18.47;100.00;100279.53;5081873;27;45207;-78
2022/10/15 07:50:13;;;;;;;;;0.00;0.00;;;;;18.51;100.00;100277.19;5082296;27;45270;-79
2022/10/15 07:52:38;;;;;;;;;1.67;0.00;;;;;18.51;100.00;100275.31;5082071;28;45270;-78
2022/10/15 07:55:04;;;;;;;;;0.00;0.00;;;;;18.59;100.00;100286.75;5081962;27;45226;-78
2022/10/15 07:57:30;;;;;;;;;0.00;0.00;;;;;18.62;100.00;100288.97;5081978;28;45173;-78
2022/10/15 07:59:55;;;;;;;;;0.00;0.00;;;;;18.59;100.00;100274.13;5082541;27;45385;-78
2022/10/15 08:02:21;;;;;;;;;1.00;1.00;;;;;18.66;100.00;100273.97;5081058;27;45527;-77
2022/10/15 08:04:47;;;;;;;;;0.00;0.00;;;;;18.71;100.00;100268.72;5090775;27;46305;-78
2022/10/15 08:07:12;;;;;;;;;0.00;0.00;;;;;18.82;100.00;100280.47;5114779;27;45889;-78
2022/10/15 08:09:38;;;;;;;;;0.00;0.00;;;;;18.79;100.00;100280.94;5097179;27;45394;-79
2022/10/15 08:12:05;;;;;;;;;0.00;0.00;;;;;18.85;100.00;100290.75;5081324;27;45348;-78
2022/10/15 08:14:31;;;;;;;;;1.33;1.33;;;;;18.88;100.00;100279.50;5081730;28;45355;-78
2022/10/15 08:16:56;;;;;;;;;0.00;0.00;;;;;18.88;100.00;100267.91;5097340;27;45309;-79
2022/10/15 08:19:22;;;;;;;;;0.00;0.00;;;;;18.95;100.00;100284.75;5081557;27;45349;-76
2022/10/15 08:21:47;;;;;;;;;1.00;0.00;;;;;18.93;100.00;100281.47;5081559;27;46912;-77
2022/10/15 08:24:12;;;;;;;;;1.33;1.00;;;;;18.98;100.00;100288.81;5081345;28;46215;-76
2022/10/15 08:26:38;;;;;;;;;0.00;0.00;;;;;19.01;100.00;100297.22;5081446;27;45354;-78
2022/10/15 08:29:04;;;;;;;;;0.00;0.00;;;;;19.05;100.00;100316.41;5097304;27;45246;-78
2022/10/15 08:31:30;;;;;;;;;0.00;0.00;;;;;19.06;100.00;100307.28;5081363;27;45244;-77
2022/10/15 08:33:58;;;;;;;;;0.00;0.00;;;;;19.07;100.00;100318.88;5097091;27;47369;-77
2022/10/15 08:36:24;;;;;;;;;0.00;0.00;;;;;19.05;100.00;100321.81;5081497;27;45381;-76
2022/10/15 08:38:49;;;;;;;;;0.00;0.00;;;;;19.06;100.00;100320.75;5080208;28;45444;-78
2022/10/15 08:41:35;;;;;;;;;0.00;0.00;;;;;19.09;100.00;100322.19;5080971;27;45583;-78
2022/10/15 08:44:01;;;;;;;;;0.00;0.00;;;;;19.11;100.00;100322.75;5081497;28;46381;-78
2022/10/15 08:46:43;;;;;;;;;0.00;0.00;;;;;19.01;100.00;100316.06;5081175;28;45310;-80
2022/10/15 08:49:45;;;;;;;;;0.00;0.00;;;;;18.98;100.00;100327.34;5081213;28;45377;-79
2022/10/15 08:52:34;;;;;;;;;0.00;0.00;;;;;18.86;100.00;100326.56;5071197;28;46241;-78
2022/10/15 08:55:01;;;;;;;;;1.00;1.00;;;;;18.86;100.00;100330.06;5086655;27;46279;-78
2022/10/15 08:57:40;;;;;;;;;0.67;0.67;;;;;18.73;100.00;100309.63;5082776;27;45189;-78
2022/10/15 09:00:18;;;;;;;;;0.00;0.00;;;;;18.78;100.00;100331.28;5081237;27;45630;-77
2022/10/15 09:03:10;;;;;;;;;0.00;0.00;;;;;18.74;100.00;100323.94;5080702;27;45492;-77
2022/10/15 09:05:52;;;;;;;;;0.00;0.00;;;;;18.81;100.00;100346.13;5080764;27;46577;-77
2022/10/15 09:08:34;;;;;;;;;1.00;1.00;;;;;18.78;100.00;100333.97;5080640;27;45424;-76
2022/10/15 09:11:06;;;;;;;;;2.00;1.33;;;;;18.79;100.00;100335.59;5075285;27;45583;-76
2022/10/15 09:13:32;;;;;;;;;1.33;1.33;;;;;18.83;100.00;100332.44;5076069;27;45339;-76
2022/10/15 09:16:13;;;;;;;;;1.00;1.00;;;;;18.78;100.00;100327.75;5078787;27;45936;-77
2022/10/15 09:18:43;;;;;;;;;1.00;1.00;;;;;18.83;100.00;100337.81;5078966;27;45299;-77
2022/10/15 09:21:10;;;;;;;;;1.00;1.00;;;;;18.86;100.00;100343.53;5079872;27;45349;-76
2022/10/15 09:23:36;;;;;;;;;3.00;1.00;;;;;18.90;100.00;100347.41;5080669;27;45354;-77
2022/10/15 09:26:17;;;;;;;;;1.00;1.00;;;;;18.86;100.00;100343.53;5080240;27;45329;-77
2022/10/15 09:28:48;;;;;;;;;1.25;1.25;;;;;18.86;100.00;100334.66;5074664;27;45519;-76
2022/10/15 09:31:20;;;;;;;;;2.00;2.00;;;;;18.92;100.00;100344.47;5080590;27;45267;-76
2022/10/15 09:33:51;;;;;;;;;1.00;1.00;;;;;18.97;100.00;100346.44;5080167;27;45416;-76
2022/10/15 09:36:35;;;;;;;;;2.00;2.00;;;;;19.08;100.00;100348.28;5079114;28;47332;-75
2022/10/15 09:39:27;;;;;;;;;1.00;1.00;;;;;19.12;100.00;100351.28;5080231;28;45210;-76
2022/10/15 09:41:58;;;;;;;;;0.25;0.25;;;;;19.18;100.00;100353.03;5080429;27;45326;-77
2022/10/15 09:44:32;;;;;;;;;2.67;2.67;;;;;19.18;100.00;100344.94;5079026;27;45338;-76
2022/10/15 09:46:57;;;;;;;;;4.00;3.00;;;;;19.23;100.00;100350.44;5071980;28;46292;-76
2022/10/15 09:49:26;;;;;;;;;3.00;3.00;;;;;19.29;100.00;100359.44;5078998;27;45364;-76
2022/10/15 09:52:09;;;;;;;;;1.00;1.00;;;;;19.27;100.00;100350.75;5080422;27;45289;-76
2022/10/15 09:54:47;;;;;;;;;1.67;1.67;;;;;19.42;100.00;100364.50;5079914;27;45301;-76
2022/10/15 09:57:16;;;;;;;;;1.00;1.00;;;;;19.44;100.00;100345.41;5079795;28;45286;-75
2022/10/15 09:59:56;;;;;;;;;2.00;2.00;;;;;19.51;100.00;100362.22;5079814;27;45339;-74
2022/10/15 10:02:24;;;;;;;;;0.00;0.00;;;;;19.54;100.00;100361.75;5078637;28;45387;-75
2022/10/15 10:04:50;;;;;;;;;3.67;3.00;;;;;19.63;100.00;100362.16;5078679;28;46432;-75
2022/10/15 10:07:27;;;;;;;;;1.00;1.00;;;;;19.65;100.00;100368.13;5079675;27;46285;-75
2022/10/15 10:09:55;;;;;;;;;1.50;1.50;;;;;19.71;100.00;100393.28;5079661;27;45492;-75
2022/10/15 10:12:26;;;;;;;;;2.00;2.00;;;;;19.74;100.00;100400.06;5079555;27;45425;-74
2022/10/15 10:15:01;;;;;;;;;1.00;1.00;;;;;19.79;100.00;100403.66;5079868;27;45342;-75
2022/10/15 10:17:29;;;;;;;;;1.00;1.00;;;;;19.83;100.00;100411.25;5079208;27;46357;-75
2022/10/15 10:20:07;;;;;;;;;2.00;2.00;;;;;19.85;100.00;100419.94;5112568;27;45347;-74
2022/10/15 10:22:51;;;;;;;;;0.33;0.33;;;;;19.87;100.00;100412.44;5079605;28;45290;-75
2022/10/15 10:25:26;;;;;;;;;1.50;1.50;;;;;19.96;100.00;100412.84;5079496;27;45223;-75
2022/10/15 10:27:56;;;;;;;;;1.67;1.67;;;;;20.04;100.00;100409.75;5079506;27;45306;-75
2022/10/15 10:30:22;;;;;;;;;1.00;1.00;;;;;20.01;100.00;100397.56;5079689;27;45320;-75
2022/10/15 10:32:53;;;;;;;;;0.00;0.00;;;;;20.11;100.00;100399.59;5079247;27;45484;-75
2022/10/15 10:35:21;;;;;;;;;1.50;1.50;;;;;20.01;100.00;100392.19;5079604;28;45294;-75
2022/10/15 10:37:47;;;;;;;;;2.25;2.00;;;;;20.16;100.00;100401.56;5079148;27;46590;-75
2022/10/15 10:40:33;;;;;;;;;4.00;2.00;;;;;20.29;100.00;100411.19;5079392;27;45359;-75
2022/10/15 10:43:28;;;;;;;;;0.00;0.00;;;;;20.40;100.00;100396.78;5079368;27;45369;-75
2022/10/15 10:46:00;;;;;;;;;3.00;2.00;;;;;20.62;100.00;100419.47;5081748;27;46290;-75
2022/10/15 10:48:46;;;;;;;;;0.00;0.00;;;;;20.65;100.00;100417.06;5079191;28;45326;-75
2022/10/15 10:51:15;;;;;;;;;1.50;0.25;;;;;20.71;99.01;100419.84;5079266;28;45555;-75
2022/10/15 10:53:47;;;;;;;;;0.00;0.00;;;;;20.68;96.80;100427.38;5076248;27;45304;-76
2022/10/15 10:56:14;;;;;;;;;0.25;0.25;;;;;20.65;96.31;100418.97;5067565;28;45778;-75
2022/10/15 10:58:40;;;;;;;;;1.00;1.00;;;;;20.67;95.65;100414.13;5075846;27;46035;-75
2022/10/15 11:01:11;;;;;;;;;0.00;0.00;;;;;20.59;95.25;100401.06;5091274;27;45321;-76
2022/10/15 11:03:40;;;;;;;;;1.25;1.25;;;;;20.62;95.82;100408.69;5078002;27;45367;-76
2022/10/15 11:06:11;;;;;;;;;0.75;0.00;;;;;20.68;95.39;100418.44;5078982;27;45393;-74
2022/10/15 11:09:01;;;;;;;;;0.00;0.00;;;;;20.66;94.70;100415.19;5094645;27;47412;-76
2022/10/15 11:11:38;;;;;;;;;0.50;0.50;;;;;20.71;94.81;100423.34;5078650;27;45296;-75
2022/10/15 11:14:41;;;;;;;;;0.00;0.00;;;;;20.93;95.37;100439.63;5079147;27;45169;-75
2022/10/15 11:17:42;;;;;;;;;1.00;0.00;;;;;21.02;94.71;100425.66;5078646;28;45610;-76
2022/10/15 11:20:21;;;;;;;;;1.00;1.00;;;;;20.96;93.40;100416.69;5071425;28;45467;-75
2022/10/15 11:23:12;;;;;;;;;2.00;1.50;;;;;20.96;92.69;100416.69;5076074;27;45501;-75
2022/10/15 11:25:58;;;;;;;;;1.00;1.00;;;;;21.05;93.21;100420.59;5111669;27;45433;-75
2022/10/15 11:28:36;;;;;;;;;0.00;0.00;;;;;21.00;91.39;100417.81;5078827;27;45417;-75
2022/10/15 11:31:29;;;;;;;;;0.50;0.50;;;;;21.04;92.15;100429.72;5094410;27;47381;-75